Airport ID:KGOO
Update Time (UTC):02/02/2023 07:17
Wind Speed (Knots):2
Wind Direction (Magnetic):110
Temperature (°C):7
Dew Point (°C):-5
Humidity (%):43
Altimeter (inHg):30.24
Density Altitude (Feet):
Visibility:10+
Clouds (Hundreds of feet):CLR
Present Weather:
METAR:METAR KGOO 020715Z AUTO 13003KT 10SM CLR 07/M05 A3024 RMK A01

The data displayed is for advisory purposes only and is not to be used for flight planning or operations.